Time;durP1;ratioP1;P1;durP2;ratioP2;P2;SDS_P1;SDS_P2;PMS_P1;PMS_P2;Temp;Humidity;BMP_temperature;BMP_pressure;BME280_temperature;BME280_humidity;BME280_pressure;Samples;Min_cycle;Max_cycle;Signal;HPM_P1;HPM_P2
2021/09/20 07:10:33;;;;;;;12.13;7.13;;;12.60;96.60;;;;;;5084509;27;20408;-70
2021/09/20 07:12:58;;;;;;;13.43;6.83;;;12.50;95.70;;;;;;5098295;28;20043;-71
2021/09/20 07:15:24;;;;;;;7.73;6.57;;;12.60;96.20;;;;;;5092662;28;20063;-73
2021/09/20 07:17:50;;;;;;;7.80;6.67;;;12.70;96.70;;;;;;5083680;28;20050;-67
2021/09/20 07:20:15;;;;;;;8.77;7.00;;;12.70;97.00;;;;;;5085846;28;20033;-67
2021/09/20 07:22:44;;;;;;;11.77;6.70;;;12.80;97.30;;;;;;5094611;28;20065;-67
2021/09/20 07:25:11;;;;;;;11.63;6.20;;;12.90;97.50;;;;;;5092360;28;20050;-67
2021/09/20 07:27:37;;;;;;;9.57;6.60;;;13.00;97.60;;;;;;5088023;28;20055;-69
2021/09/20 07:30:05;;;;;;;8.73;6.70;;;13.10;97.70;;;;;;5091977;28;20100;-70
2021/09/20 07:32:31;;;;;;;8.00;6.53;;;13.10;97.60;;;;;;5093656;28;20040;-70
2021/09/20 07:34:57;;;;;;;9.20;6.83;;;13.20;97.60;;;;;;5094492;28;20063;-68
2021/09/20 07:37:22;;;;;;;7.83;6.50;;;13.30;97.50;;;;;;5095612;28;20051;-68
2021/09/20 07:39:48;;;;;;;10.37;6.40;;;13.30;97.30;;;;;;5094117;28;20404;-67
2021/09/20 07:42:13;;;;;;;10.57;6.47;;;13.40;97.20;;;;;;5094077;28;20071;-71
2021/09/20 07:44:39;;;;;;;8.20;5.93;;;13.50;97.10;;;;;;5092016;28;20119;-71
2021/09/20 07:47:05;;;;;;;7.50;5.47;;;13.50;96.90;;;;;;5092986;28;20048;-71
2021/09/20 07:49:30;;;;;;;9.00;5.80;;;13.60;96.80;;;;;;5085565;28;20040;-68
2021/09/20 07:51:56;;;;;;;8.47;6.00;;;13.60;96.60;;;;;;5084943;28;20556;-69
2021/09/20 07:54:21;;;;;;;9.63;6.13;;;13.70;96.40;;;;;;5085777;28;20101;-68
2021/09/20 07:56:47;;;;;;;11.77;5.97;;;13.70;96.30;;;;;;5085471;28;20534;-71
2021/09/20 07:59:13;;;;;;;7.07;5.40;;;13.80;96.20;;;;;;5085013;28;20044;-73
2021/09/20 08:01:38;;;;;;;9.93;6.17;;;13.90;96.00;;;;;;5084009;28;20044;-71
2021/09/20 08:04:04;;;;;;;9.77;4.83;;;13.90;95.90;;;;;;5083990;28;20050;-71
2021/09/20 08:06:30;;;;;;;7.60;4.83;;;13.90;95.90;;;;;;5085249;28;20044;-71
2021/09/20 08:08:55;;;;;;;8.50;6.07;;;14.00;95.80;;;;;;5083944;28;20074;-72
2021/09/20 08:11:21;;;;;;;7.83;5.57;;;14.10;95.80;;;;;;5084775;28;20127;-66
2021/09/20 08:13:47;;;;;;;6.70;4.90;;;14.20;95.60;;;;;;5085335;28;20048;-66
2021/09/20 08:16:12;;;;;;;6.97;5.07;;;14.20;95.40;;;;;;5085374;28;20044;-70
2021/09/20 08:18:38;;;;;;;6.90;4.47;;;14.30;95.10;;;;;;5084890;28;20552;-72
2021/09/20 08:21:06;;;;;;;6.43;4.53;;;14.30;95.00;;;;;;5075461;28;20127;-73
2021/09/20 08:23:32;;;;;;;9.03;4.53;;;14.30;94.70;;;;;;5070677;28;20066;-72
2021/09/20 08:25:58;;;;;;;7.13;4.80;;;14.40;94.60;;;;;;5069836;28;20898;-69
2021/09/20 08:28:24;;;;;;;7.90;4.50;;;14.40;94.50;;;;;;5070472;28;20056;-69
2021/09/20 08:30:50;;;;;;;6.90;4.20;;;14.50;94.30;;;;;;5071386;28;20090;-70
2021/09/20 08:33:16;;;;;;;6.13;3.97;;;14.50;94.00;;;;;;5070885;28;20102;-70
2021/09/20 08:35:42;;;;;;;7.07;4.73;;;14.60;93.90;;;;;;5079788;28;20078;-71
2021/09/20 08:38:07;;;;;;;8.63;4.10;;;14.60;93.90;;;;;;5079953;28;20040;-72
2021/09/20 08:40:34;;;;;;;8.43;4.07;;;14.70;93.40;;;;;;5080821;28;20478;-71
2021/09/20 08:43:01;;;;;;;5.43;3.67;;;14.70;93.20;;;;;;5091176;28;20048;-72
2021/09/20 08:45:27;;;;;;;10.63;3.93;;;14.70;92.90;;;;;;5090085;28;20043;-72
2021/09/20 08:47:55;;;;;;;6.17;3.83;;;14.80;92.80;;;;;;5090793;28;20054;-73
2021/09/20 08:50:33;;;;;;;8.57;3.90;;;14.80;92.40;;;;;;5090088;28;20139;-73
2021/09/20 08:53:00;;;;;;;6.50;4.33;;;14.80;92.70;;;;;;5090554;28;20072;-77
2021/09/20 08:55:26;;;;;;;6.43;3.40;;;14.90;92.20;;;;;;5091013;28;20483;-78
2021/09/20 08:57:52;;;;;;;8.23;3.70;;;14.90;92.10;;;;;;5088357;28;20078;-80
2021/09/20 09:00:18;;;;;;;9.53;3.73;;;15.00;91.90;;;;;;5071379;28;20170;-72
2021/09/20 09:02:44;;;;;;;7.03;3.60;;;15.10;91.80;;;;;;5071544;28;20413;-70
2021/09/20 09:05:30;;;;;;;6.03;3.50;;;15.10;91.50;;;;;;5069853;28;20041;-65
2021/09/20 09:07:57;;;;;;;5.07;3.47;;;15.20;91.20;;;;;;5068718;28;20060;-65
2021/09/20 09:10:28;;;;;;;5.07;3.50;;;15.20;91.30;;;;;;5069231;28;20075;-66
2021/09/20 09:12:55;;;;;;;5.90;3.28;;;15.30;91.00;;;;;;5070652;28;20048;-66
2021/09/20 09:15:23;;;;;;;5.60;3.27;;;15.30;90.90;;;;;;5069768;28;20044;-65
2021/09/20 09:17:53;;;;;;;6.73;3.20;;;15.30;90.70;;;;;;5070076;28;20055;-65
2021/09/20 09:20:22;;;;;;;6.17;3.20;;;15.20;90.40;;;;;;5070340;28;20044;-64
2021/09/20 09:22:51;;;;;;;6.30;3.30;;;15.20;90.10;;;;;;5069538;28;20491;-65
2021/09/20 09:25:27;;;;;;;4.70;2.83;;;15.10;89.70;;;;;;5070722;28;20378;-65
2021/09/20 09:28:01;;;;;;;5.57;3.27;;;15.20;89.40;;;;;;5069854;28;20123;-65
2021/09/20 09:30:38;;;;;;;6.03;2.73;;;15.20;89.60;;;;;;5069602;28;20049;-65
2021/09/20 09:33:07;;;;;;;6.97;2.57;;;15.20;89.60;;;;;;5068117;28;20083;-65
2021/09/20 10:55:31;;;;;;;3.93;1.50;;;15.90;77.90;;;;;;5083709;27;20360;-74
2021/09/20 10:58:16;;;;;;;2.83;1.50;;;15.90;83.10;;;;;;5079524;28;20449;-74
2021/09/20 11:00:42;;;;;;;2.73;1.73;;;15.90;80.20;;;;;;5070116;28;20052;-71
2021/09/20 11:03:46;;;;;;;2.83;1.30;;;16.00;80.80;;;;;;5071237;28;20036;-74
2021/09/20 11:06:32;;;;;;;4.10;1.90;;;16.00;79.30;;;;;;5089392;28;20037;-73
2021/09/20 11:08:58;;;;;;;3.00;1.70;;;16.10;78.10;;;;;;5064381;28;20053;-70
2021/09/20 11:11:39;;;;;;;3.23;1.63;;;16.10;76.70;;;;;;5062491;28;20523;-71
2021/09/20 11:14:35;;;;;;;4.10;1.52;;;16.10;75.70;;;;;;5080705;28;20373;-69
2021/09/20 11:17:22;;;;;;;2.00;1.00;;;16.10;75.80;;;;;;5070840;28;20093;-75
2021/09/20 11:19:49;;;;;;;2.60;1.50;;;16.10;74.30;;;;;;5081317;28;20366;-67
2021/09/20 11:22:14;;;;;;;2.60;1.27;;;16.00;74.30;;;;;;5060322;28;20068;-67
2021/09/20 11:24:53;;;;;;;3.27;1.20;;;16.00;73.90;;;;;;5066438;28;20479;-68
2021/09/20 11:27:26;;;;;;;2.07;1.30;;;15.90;73.80;;;;;;5088957;28;20056;-68
2021/09/20 11:30:01;;;;;;;3.00;1.30;;;15.90;73.70;;;;;;5069591;28;20159;-67
2021/09/20 11:32:28;;;;;;;2.40;1.30;;;15.80;71.90;;;;;;5086965;28;20508;-67
2021/09/20 11:34:56;;;;;;;3.27;1.73;;;15.80;72.00;;;;;;5086365;28;20093;-67
2021/09/20 11:37:25;;;;;;;2.47;1.10;;;15.70;72.10;;;;;;5086086;28;20082;-68
2021/09/20 11:40:00;;;;;;;2.77;1.40;;;15.70;72.50;;;;;;5087689;28;20132;-67
2021/09/20 11:42:36;;;;;;;3.17;1.57;;;15.70;71.70;;;;;;5067112;28;20437;-67
2021/09/20 11:45:19;;;;;;;4.47;1.50;;;15.80;71.20;;;;;;5087480;28;20043;-67
2021/09/20 11:47:50;;;;;;;2.77;1.50;;;15.80;70.90;;;;;;5067219;28;20440;-67
2021/09/20 12:35:47;;;;;;;2.77;1.30;;;16.70;67.10;;;;;;5083819;27;20347;-66
2021/09/20 12:38:14;;;;;;;2.60;1.40;;;16.70;70.40;;;;;;5069386;28;20071;-67
2021/09/20 12:40:39;;;;;;;4.93;1.60;;;16.70;68.70;;;;;;5049933;28;20178;-67
2021/09/20 12:43:23;;;;;;;4.43;1.50;;;16.80;67.60;;;;;;5069436;28;20033;-66
2021/09/20 12:45:48;;;;;;;4.77;1.70;;;16.80;66.80;;;;;;5068010;28;20044;-66
2021/09/20 12:48:16;;;;;;;4.57;1.50;;;16.80;67.40;;;;;;5068603;28;20416;-67
2021/09/20 12:50:47;;;;;;;2.90;1.40;;;16.70;66.90;;;;;;5068779;28;20123;-66
2021/09/20 12:53:19;;;;;;;2.37;1.57;;;16.70;67.30;;;;;;5048119;28;20532;-67
2021/09/20 12:55:46;;;;;;;2.43;1.40;;;16.60;67.10;;;;;;5048695;28;20052;-67
2021/09/20 12:58:30;;;;;;;3.50;1.40;;;16.70;67.00;;;;;;5069007;28;20060;-66
2021/09/20 13:00:57;;;;;;;3.27;1.50;;;16.80;66.10;;;;;;5067299;28;20045;-67
2021/09/20 13:03:35;;;;;;;3.13;1.43;;;16.90;65.00;;;;;;5069028;28;20049;-65
2021/09/20 13:06:03;;;;;;;5.07;1.57;;;17.00;64.40;;;;;;5067596;28;20478;-65
2021/09/20 13:08:30;;;;;;;2.47;1.17;;;17.10;64.60;;;;;;5067111;28;20048;-65
2021/09/20 13:11:10;;;;;;;2.50;1.20;;;17.10;63.90;;;;;;5067409;28;20040;-65
2021/09/20 13:13:39;;;;;;;2.27;1.20;;;17.20;63.20;;;;;;5064448;28;20052;-65
2021/09/20 13:16:05;;;;;;;2.00;1.03;;;17.30;62.80;;;;;;5050180;28;20306;-65
2021/09/20 13:18:30;;;;;;;1.77;1.20;;;17.30;62.40;;;;;;5049639;28;20528;-65
2021/09/20 13:20:56;;;;;;;3.23;1.03;;;17.40;61.80;;;;;;5043656;28;20045;-65
2021/09/20 13:23:34;;;;;;;4.23;1.33;;;17.40;61.10;;;;;;5068268;28;20068;-65
2021/09/20 13:26:01;;;;;;;4.20;1.50;;;17.40;60.40;;;;;;5067152;28;20118;-65
2021/09/20 13:28:32;;;;;;;4.33;1.57;;;17.30;60.60;;;;;;5064325;28;20040;-65
2021/09/20 13:30:59;;;;;;;4.75;1.70;;;17.30;60.20;;;;;;5067263;28;20040;-65
2021/09/20 15:33:41;;;;;;;2.20;1.33;;;15.70;64.50;;;;;;5164511;27;20361;-67
2021/09/20 15:36:07;;;;;;;2.37;1.70;;;15.60;67.00;;;;;;5142209;27;20046;-68
2021/09/20 15:38:33;;;;;;;6.27;1.60;;;15.60;67.50;;;;;;5160736;27;20448;-70
2021/09/20 15:40:58;;;;;;;4.00;1.93;;;15.60;67.20;;;;;;5140715;27;20042;-70
2021/09/20 15:43:24;;;;;;;3.03;1.80;;;15.60;66.70;;;;;;5161021;27;20034;-67
2021/09/20 15:45:52;;;;;;;3.50;1.47;;;15.60;66.50;;;;;;5139791;27;20038;-69
2021/09/20 15:48:18;;;;;;;4.10;1.70;;;15.70;66.10;;;;;;5157388;27;20050;-68
2021/09/20 15:50:46;;;;;;;3.40;1.50;;;15.70;66.30;;;;;;5158347;27;20493;-69
2021/09/20 15:53:12;;;;;;;4.00;2.17;;;15.70;66.50;;;;;;5160970;27;20034;-70
2021/09/20 15:55:37;;;;;;;3.43;2.23;;;15.70;66.60;;;;;;5159992;27;20046;-70
2021/09/20 15:58:03;;;;;;;4.43;1.90;;;15.70;67.10;;;;;;5153380;27;20070;-69
2021/09/20 16:00:29;;;;;;;5.13;2.00;;;15.80;67.10;;;;;;5133897;27;20089;-67
2021/09/20 16:02:55;;;;;;;4.10;2.03;;;15.80;67.30;;;;;;5149666;27;20069;-70
2021/09/20 16:05:21;;;;;;;5.43;2.13;;;15.80;67.70;;;;;;5131415;27;20050;-69
2021/09/20 16:07:48;;;;;;;3.83;2.17;;;15.80;68.30;;;;;;5131516;27;20066;-68
2021/09/20 16:10:16;;;;;;;4.00;2.60;;;15.80;68.20;;;;;;5130682;27;20134;-68
2021/09/20 16:12:42;;;;;;;3.87;2.33;;;15.80;68.10;;;;;;5150084;27;20054;-71
2021/09/20 16:15:10;;;;;;;5.03;2.57;;;15.90;68.50;;;;;;5131639;27;20035;-70
2021/09/20 16:17:36;;;;;;;4.80;2.40;;;15.80;68.90;;;;;;5149239;27;20051;-69
2021/09/20 16:20:02;;;;;;;5.13;2.17;;;15.80;69.20;;;;;;5131050;27;20426;-68
2021/09/20 16:22:28;;;;;;;4.23;2.33;;;15.70;69.40;;;;;;5131631;27;20043;-68
2021/09/20 16:24:53;;;;;;;5.17;2.20;;;15.70;69.70;;;;;;5130590;27;20501;-68
2021/09/20 16:27:20;;;;;;;3.77;2.20;;;15.60;70.00;;;;;;5149866;27;20039;-69
2021/09/20 16:29:46;;;;;;;3.83;2.30;;;15.60;70.10;;;;;;5131109;27;20074;-68
2021/09/20 16:32:12;;;;;;;4.80;2.57;;;15.50;70.90;;;;;;5126840;28;20082;-68
2021/09/20 16:34:41;;;;;;;3.80;2.40;;;15.50;70.30;;;;;;5129309;28;20100;-68
2021/09/20 16:37:11;;;;;;;4.33;2.00;;;15.50;70.40;;;;;;5129132;27;20154;-68
2021/09/20 16:39:38;;;;;;;10.53;2.47;;;15.40;70.70;;;;;;5127055;28;20039;-68
2021/09/20 16:42:05;;;;;;;5.03;2.70;;;15.30;71.30;;;;;;5128866;28;20092;-68
2021/09/20 18:04:27;;;;;;;4.73;2.47;;;13.50;79.70;;;;;;5103856;27;20431;-67
2021/09/20 18:06:52;;;;;;;4.80;2.30;;;13.50;76.80;;;;;;5108805;28;20112;-67
2021/09/20 18:09:18;;;;;;;2.60;2.10;;;13.40;79.60;;;;;;5107246;28;20729;-67
2021/09/20 18:11:44;;;;;;;4.90;2.50;;;13.40;81.10;;;;;;5108803;28;20368;-68
2021/09/20 18:14:09;;;;;;;5.17;2.63;;;13.50;81.80;;;;;;5107333;28;20047;-69
2021/09/20 18:16:35;;;;;;;4.47;2.67;;;13.50;82.50;;;;;;5106618;28;20613;-69
2021/09/20 18:19:01;;;;;;;3.00;2.33;;;13.60;83.20;;;;;;5108373;28;20044;-68
2021/09/20 18:21:26;;;;;;;3.70;2.37;;;13.60;83.80;;;;;;5107518;28;20050;-69
2021/09/20 18:23:52;;;;;;;4.70;2.50;;;13.70;84.10;;;;;;5106089;28;20043;-69
2021/09/20 18:26:20;;;;;;;5.70;3.27;;;13.70;84.20;;;;;;5107452;28;20072;-70
2021/09/20 18:28:45;;;;;;;4.10;2.87;;;13.70;84.50;;;;;;5108567;28;20105;-65
2021/09/20 18:31:11;;;;;;;8.77;3.60;;;13.80;86.10;;;;;;5108192;28;20488;-66
2021/09/20 18:33:38;;;;;;;7.37;3.30;;;13.80;85.10;;;;;;5107619;28;20093;-68
2021/09/20 18:36:06;;;;;;;6.17;3.33;;;13.90;84.90;;;;;;5107296;28;20480;-69
2021/09/20 18:38:32;;;;;;;5.07;3.80;;;13.80;84.40;;;;;;5106565;28;20389;-67
2021/09/20 18:40:58;;;;;;;5.10;2.60;;;13.80;84.10;;;;;;5108330;28;20040;-67
2021/09/20 18:43:24;;;;;;;5.63;3.10;;;13.90;84.40;;;;;;5108657;28;20127;-68
2021/09/20 18:45:49;;;;;;;7.07;3.53;;;13.80;84.90;;;;;;5107541;28;20044;-68
2021/09/20 18:48:15;;;;;;;7.70;3.67;;;13.90;85.20;;;;;;5106904;28;20055;-71
2021/09/20 18:50:41;;;;;;;8.10;3.80;;;13.90;85.20;;;;;;5107916;28;20344;-75
2021/09/20 18:53:07;;;;;;;5.73;3.77;;;13.90;85.10;;;;;;5107751;28;20054;-71
2021/09/20 18:55:33;;;;;;;6.50;3.53;;;14.00;84.60;;;;;;5107707;28;20092;-72
2021/09/20 18:57:59;;;;;;;5.93;3.47;;;14.00;84.30;;;;;;5106440;28;20252;-67
